Map

Track Data

SID SEASON NUMBER BASIN SUBBASIN NAME ISO_TIME NATURE LAT LON WMO_WIND WMO_PRES WMO_AGENCY TRACK_TYPE DIST2LAND LANDFALL IFLAG USA_AGENCY USA_ATCF_ID USA_LAT USA_LON USA_RECORD USA_STATUS USA_WIND USA_PRES USA_SSHS USA_R34_NE USA_R34_SE USA_R34_SW USA_R34_NW USA_R50_NE USA_R50_SE USA_R50_SW USA_R50_NW USA_R64_NE USA_R64_SE USA_R64_SW USA_R64_NW USA_POCI USA_ROCI USA_RMW USA_EYE TOKYO_LAT TOKYO_LON TOKYO_GRADE TOKYO_WIND TOKYO_PRES TOKYO_R50_DIR TOKYO_R50_LONG TOKYO_R50_SHORT TOKYO_R30_DIR TOKYO_R30_LONG TOKYO_R30_SHORT TOKYO_LAND CMA_LAT CMA_LON CMA_CAT CMA_WIND CMA_PRES HKO_LAT HKO_LON HKO_CAT HKO_WIND HKO_PRES NEWDELHI_LAT NEWDELHI_LON NEWDELHI_GRADE NEWDELHI_WIND NEWDELHI_PRES NEWDELHI_CI NEWDELHI_DP NEWDELHI_POCI REUNION_LAT REUNION_LON REUNION_TYPE REUNION_WIND REUNION_PRES REUNION_TNUM REUNION_CI REUNION_RMW REUNION_R34_NE REUNION_R34_SE REUNION_R34_SW REUNION_R34_NW REUNION_R50_NE REUNION_R50_SE REUNION_R50_SW REUNION_R50_NW REUNION_R64_NE REUNION_R64_SE REUNION_R64_SW REUNION_R64_NW BOM_LAT BOM_LON BOM_TYPE BOM_WIND BOM_PRES BOM_TNUM BOM_CI BOM_RMW BOM_R34_NE BOM_R34_SE BOM_R34_SW BOM_R34_NW BOM_R50_NE BOM_R50_SE BOM_R50_SW BOM_R50_NW BOM_R64_NE BOM_R64_SE BOM_R64_SW BOM_R64_NW BOM_ROCI BOM_POCI BOM_EYE BOM_POS_METHOD BOM_PRES_METHOD NADI_LAT NADI_LON NADI_CAT NADI_WIND NADI_PRES WELLINGTON_LAT WELLINGTON_LON WELLINGTON_WIND WELLINGTON_PRES DS824_LAT DS824_LON DS824_STAGE DS824_WIND DS824_PRES TD9636_LAT TD9636_LON TD9636_STAGE TD9636_WIND TD9636_PRES TD9635_LAT TD9635_LON TD9635_WIND TD9635_PRES TD9635_ROCI NEUMANN_LAT NEUMANN_LON NEUMANN_CLASS NEUMANN_WIND NEUMANN_PRES MLC_LAT MLC_LON MLC_CLASS MLC_WIND MLC_PRES USA_GUST BOM_GUST BOM_GUST_PER REUNION_GUST REUNION_GUST_PER USA_SEAHGT USA_SEARAD_NE USA_SEARAD_SE USA_SEARAD_SW USA_SEARAD_NW STORM_SPEED STORM_DIR
2021216N25126 2021 53 WP MM MIRINAE 2021-08-04 06:00:00 TS 25.3000 126.400 PROVISIONAL 443 443 O_____________ tcgp WP142021 25.3000 126.400 TD 25 997 -1 1000 150 120 2 28
2021216N25126 2021 53 WP MM MIRINAE 2021-08-04 09:00:00 TS 25.3700 126.445 PROVISIONAL 444 444 P_____________ WP142021 25.3675 126.430 TD 25 996 -1 1000 150 85 2 25
2021216N25126 2021 53 WP MM MIRINAE 2021-08-04 12:00:00 TS 25.5000 126.500 PROVISIONAL 455 455 O_____________ tcgp WP142021 25.5000 126.500 TD 25 995 -1 1000 150 50 4 19
2021216N25126 2021 53 WP MM MIRINAE 2021-08-04 15:00:00 TS 25.7275 126.578 PROVISIONAL 468 468 P_____________ WP142021 25.7350 126.622 TD 25 995 -1 1000 150 50 5 20
2021216N25126 2021 53 WP MM MIRINAE 2021-08-04 18:00:00 TS 26.0000 126.700 PROVISIONAL 484 484 O_____________ tcgp WP142021 26.0000 126.700 TD 25 995 -1 1000 150 50 6 24
2021216N25126 2021 53 WP MM MIRINAE 2021-08-04 21:00:00 TS 26.2572 126.840 PROVISIONAL 502 502 P_____________ WP142021 26.2313 126.535 TD 25 995 -1 1000 150 50 5 27
2021216N25126 2021 53 WP MM MIRINAE 2021-08-05 00:00:00 TS 26.4800 126.980 PROVISIONAL 527 527 O_____________ tcvitals WP142021 26.4000 126.500 TD 25 995 -1 1000 150 50 6 51
2021216N25126 2021 53 WP MM MIRINAE 2021-08-05 03:00:00 TS 26.6381 127.375 PROVISIONAL 568 553 P_____________ WP142021 26.4624 126.935 TD -5 999 150 50 8 73
2021216N25126 2021 53 WP MM MIRINAE 2021-08-05 06:00:00 TS 26.7199 127.872 PROVISIONAL 549 533 O_____________ tcvitals WP142021 26.4798 127.568 TD -5 998 150 50 9 84
2021216N25126 2021 53 WP MM MIRINAE 2021-08-05 09:00:00 TS 26.7280 128.379 PROVISIONAL 529 510 P_____________ WP142021 26.5261 128.116 TD -5 998 155 50 10 89
2021216N25126 2021 53 WP MM MIRINAE 2021-08-05 12:00:00 TS 26.7427 128.944 PROVISIONAL 510 483 O_____________ tcvitals WP142021 26.5854 128.688 TD -5 40 110 999 160 50 10 87
2021216N25126 2021 53 WP MM MIRINAE 2021-08-05 15:00:00 TS 26.7777 129.508 PROVISIONAL 483 472 P_____________ WP142021 26.6558 129.281 TD -5 67 110 999 160 50 10 85
2021216N25126 2021 53 WP MM MIRINAE 2021-08-05 18:00:00 TS 26.8244 130.107 PROVISIONAL 472 457 O_____________ tcvitals WP142021 26.7488 129.913 TD -5 95 110 75 999 160 50 45 11 86
2021216N25126 2021 53 WP MM MIRINAE 2021-08-05 21:00:00 TS 26.8642 130.743 PROVISIONAL 457 457 P_____________ WP142021 26.8589 130.581 TD -5 77 95 77 999 160 50 12 84
2021216N25126 2021 53 WP MM MIRINAE 2021-08-06 00:00:00 TS 26.9429 131.471 PROVISIONAL 464 454 O_____________ tcvitals WP142021 27.0000 131.300 TD 35 992 0 60 80 80 60 999 160 50 45 14 81
2021216N25126 2021 53 WP MM MIRINAE 2021-08-06 03:00:00 TS 27.0949 132.319 PROVISIONAL 462 462 P_____________ WP142021 27.1602 132.054 TD 36 990 0 85 100 95 60 999 167 50 16 77
2021216N25126 2021 53 WP MM MIRINAE 2021-08-06 06:00:00 TS 27.3128 133.215 PROVISIONAL 478 478 I_____________ tcvitals WP142021 27.3642 132.873 TD 37 989 0 110 120 110 60 999 175 50 45 16 71
2021216N25126 2021 53 WP MM MIRINAE 2021-08-06 09:00:00 TS 27.5910 133.978 PROVISIONAL 492 488 P_____________ WP142021 27.6214 133.755 TD 38 987 0 112 160 130 57 999 177 50 14 66
2021216N25126 2021 53 WP MM MIRINAE 2021-08-06 12:00:00 TS 27.9000 134.700 PROVISIONAL 503 503 O_____________ tcgp WP142021 27.9000 134.700 TS 40 986 0 115 200 150 55 999 180 50 17 71
2021216N25126 2021 53 WP MM MIRINAE 2021-08-06 15:00:00 TS 28.1292 135.745 PROVISIONAL 554 554 P_____________ WP142021 28.1238 135.777 TS 40 988 0 122 152 127 45 999 170 50 18 74
2021216N25126 2021 53 WP MM MIRINAE 2021-08-06 18:00:00 TS 28.4000 136.700 PROVISIONAL 564 538 O_____________ tcgp WP142021 28.4000 136.700 TS 40 990 0 130 105 105 35 1000 160 50 14 63
2021216N25126 2021 53 WP MM MIRINAE 2021-08-06 21:00:00 TS 28.7585 137.177 PROVISIONAL 530 484 P_____________ WP142021 28.7585 137.177 TS 40 990 0 92 122 92 50 1001 160 50 11 38
2021216N25126 2021 53 WP MM MIRINAE 2021-08-07 00:00:00 TS 29.3000 137.500 PROVISIONAL 484 422 O_____________ tcgp WP142021 29.3000 137.500 TS 40 991 0 55 140 80 65 1002 160 50 16 28
2021216N25126 2021 53 WP MM MIRINAE 2021-08-07 03:00:00 TS 30.1503 138.021 PROVISIONAL 412 368 P_____________ WP142021 30.1503 138.021 TS 37 993 0 55 140 80 65 1001 155 57 19 27
2021216N25126 2021 53 WP MM MIRINAE 2021-08-07 06:00:00 TS 31.0000 138.500 PROVISIONAL 368 345 O_____________ tcgp WP142021 31.0000 138.500 TS 35 995 0 55 140 80 65 1001 150 65 15 26
2021216N25126 2021 53 WP MM MIRINAE 2021-08-07 09:00:00 TS 31.4796 138.789 PROVISIONAL 345 301 P_____________ WP142021 31.4796 138.789 TS 37 992 0 42 130 82 57 1001 145 62 10 25
2021216N25126 2021 53 WP MM MIRINAE 2021-08-07 12:00:00 TS 31.9000 139.000 PROVISIONAL 301 237 O_____________ tcgp WP142021 31.9000 139.000 TS 40 990 0 30 120 85 50 1001 140 60 11 18
2021216N25126 2021 53 WP MM MIRINAE 2021-08-07 15:00:00 TS 32.5571 139.206 PROVISIONAL 226 168 P_____________ WP142021 32.5571 139.206 TS 42 987 0 85 140 90 55 1001 140 45 14 18
2021216N25126 2021 53 WP MM MIRINAE 2021-08-07 18:00:00 TS 33.2000 139.500 PROVISIONAL 168 144 O_____________ tcgp WP142021 33.2000 139.500 TS 45 984 0 140 160 95 60 1001 140 30 12 32
2021216N25126 2021 53 WP MM MIRINAE 2021-08-07 21:00:00 TS 33.6073 139.977 PROVISIONAL 145 119 P_____________ WP142021 33.6073 139.977 TS 45 982 0 125 180 92 70 1001 140 32 12 49
2021216N25126 2021 53 WP MM MIRINAE 2021-08-08 00:00:00 TS 34.0000 140.600 PROVISIONAL 119 105 O_____________ tcgp WP142021 34.0000 140.600 TS 45 980 0 110 200 90 80 1001 140 35 15 49
2021216N25126 2021 53 WP MM MIRINAE 2021-08-08 03:00:00 TS 34.5853 141.334 PROVISIONAL 105 105 P_____________ WP142021 34.5853 141.334 TS 45 981 0 110 195 102 77 1001 140 35 17 46
2021216N25126 2021 53 WP MM MIRINAE 2021-08-08 06:00:00 TS 35.2000 142.100 PROVISIONAL 121 121 O_____________ tcgp WP142021 35.2000 142.100 TS 45 982 0 110 190 115 75 1001 140 35 16 45
2021216N25126 2021 53 WP MM MIRINAE 2021-08-08 09:00:00 TS 35.7288 142.737 PROVISIONAL 162 162 P_____________ WP142021 35.7288 142.737 TS 45 982 0 90 167 117 1001 150 55 15 47
2021216N25126 2021 53 WP MM MIRINAE 2021-08-08 12:00:00 TS 36.2000 143.400 PROVISIONAL 231 231 O_____________ tcgp WP142021 36.2000 143.400 TS 45 982 0 70 145 120 1002 160 75 15 53
2021216N25126 2021 53 WP MM MIRINAE 2021-08-08 15:00:00 TS 36.6221 144.206 PROVISIONAL 287 287 P_____________ WP142021 36.6221 144.206 TS 47 981 0 90 150 132 1002 160 45 16 60
2021216N25126 2021 53 WP MM MIRINAE 2021-08-08 18:00:00 TS 37.0000 145.100 PROVISIONAL 347 347 O_____________ tcgp WP142021 37.0000 145.100 TS 50 980 0 110 155 145 90 40 1002 160 15 16 62
2021216N25126 2021 53 WP MM MIRINAE 2021-08-08 21:00:00 TS 37.3697 145.954 PROVISIONAL 406 406 P_____________ WP142021 37.3697 145.954 TS 47 981 0 92 157 165 67 1002 160 15 17 65
2021216N25126 2021 53 WP MM MIRINAE 2021-08-09 00:00:00 TS 37.7000 147.000 PROVISIONAL 469 469 O_____________ tcgp WP142021 37.7000 147.000 TS 45 983 0 75 160 185 45 1002 160 15 21 73
2021216N25126 2021 53 WP MM MIRINAE 2021-08-09 03:00:00 TS 37.9981 148.484 PROVISIONAL 577 577 P_____________ WP142021 37.9981 148.484 TS 45 984 0 82 170 170 47 1002 167 22 24 78
2021216N25126 2021 53 WP MM MIRINAE 2021-08-09 06:00:00 TS 38.2000 150.000 PROVISIONAL 672 672 O_____________ tcgp WP142021 38.2000 150.000 TS 45 985 0 90 180 155 50 1002 175 30 20 82
2021216N25126 2021 53 WP MM MIRINAE 2021-08-09 09:00:00 TS 38.2672 151.045 PROVISIONAL 714 714 P_____________ WP142021 38.2672 151.045 TS 45 984 0 90 177 157 55 1002 175 30 16 87
2021216N25126 2021 53 WP MM MIRINAE 2021-08-09 12:00:00 TS 38.3000 152.100 PROVISIONAL 776 776 O_____________ tcgp WP142021 38.3000 152.100 TS 45 983 0 90 175 160 60 1002 175 30 20 86
2021216N25126 2021 53 WP MM MIRINAE 2021-08-09 15:00:00 TS 38.4009 153.582 PROVISIONAL 862 862 P_____________ WP142021 38.4009 153.582 TS 45 983 0 112 135 127 87 1002 180 30 24 85
2021216N25126 2021 53 WP MM MIRINAE 2021-08-09 18:00:00 ET 38.5000 155.200 PROVISIONAL 909 909 O_____________ tcgp WP142021 38.5000 155.200 EX 45 984 -4 135 95 95 115 1002 185 30 25 86
2021216N25126 2021 53 WP MM MIRINAE 2021-08-09 21:00:00 ET 38.5645 156.735 PROVISIONAL 967 967 P_____________ WP142021 38.5645 156.735 EX 45 983 -4 142 127 132 125 1002 185 30 23 88
2021216N25126 2021 53 WP MM MIRINAE 2021-08-10 00:00:00 ET 38.6000 158.200 PROVISIONAL 1044 O_____________ tcgp WP142021 38.6000 158.200 EX 45 982 -4 150 160 170 135 1002 185 30 23 88

Digital Typhoon Data and Search

About IBTrACS Database

This database is a web-friendly format of International Best Track Archive for Climate Stewardship (IBTrACS), a global best track data archive curated by NOAA dating back to 1842.

Updated: 2022-01-26